createdAt,value
2022-09-14T00:01:26.887Z,99.90
2022-09-14T00:06:33.423Z,99.90
2022-09-14T00:11:40.537Z,99.90
2022-09-14T00:16:47.351Z,99.90
2022-09-14T00:21:56.191Z,99.90
2022-09-14T00:27:02.186Z,99.90
2022-09-14T00:32:08.063Z,99.90
2022-09-14T00:37:14.301Z,99.90
2022-09-14T00:42:21.354Z,99.90
2022-09-14T00:47:27.802Z,99.90
2022-09-14T00:52:36.347Z,99.90
2022-09-14T00:57:47.649Z,99.90
2022-09-14T01:02:54.259Z,99.90
2022-09-14T01:08:19.836Z,99.90
2022-09-14T01:13:51.985Z,99.90
2022-09-14T01:19:08.386Z,99.90
2022-09-14T01:24:29.916Z,99.90
2022-09-14T01:30:00.229Z,99.90
2022-09-14T01:35:21.461Z,99.90
2022-09-14T01:40:27.271Z,99.90
2022-09-14T01:45:36.478Z,99.90
2022-09-14T01:50:52.705Z,99.90
2022-09-14T01:56:02.224Z,99.90
2022-09-14T02:01:10.886Z,99.90
2022-09-14T02:06:31.088Z,99.90
2022-09-14T02:11:37.698Z,99.90
2022-09-14T02:16:46.894Z,99.90
2022-09-14T02:21:52.578Z,99.90
2022-09-14T02:27:00.164Z,99.90
2022-09-14T02:32:41.966Z,99.90
2022-09-14T02:38:31.122Z,99.90
2022-09-14T02:43:45.304Z,99.90
2022-09-14T02:48:56.893Z,99.90
2022-09-14T02:54:18.751Z,99.90
2022-09-14T02:59:24.588Z,99.90
2022-09-14T03:04:30.783Z,99.90
2022-09-14T03:09:37.071Z,99.90
2022-09-14T03:14:42.942Z,99.90
2022-09-14T03:19:49.063Z,99.90
2022-09-14T03:24:54.975Z,99.90
2022-09-14T03:30:00.808Z,99.90
2022-09-14T03:35:06.535Z,99.90
2022-09-14T03:40:19.278Z,99.90
2022-09-14T03:45:30.099Z,99.90
2022-09-14T03:50:36.382Z,99.90
2022-09-14T03:55:43.513Z,99.90
2022-09-14T04:00:49.347Z,99.90
2022-09-14T04:05:59.057Z,99.90
2022-09-14T04:11:13.533Z,99.90
2022-09-14T04:16:20.638Z,99.90
2022-09-14T04:21:28.316Z,99.90
2022-09-14T04:26:34.721Z,99.90
2022-09-14T04:31:53.136Z,99.90
2022-09-14T04:36:58.645Z,99.90
2022-09-14T04:42:06.644Z,99.90
2022-09-14T04:47:12.049Z,99.90
2022-09-14T04:52:17.970Z,99.90
2022-09-14T04:57:24.577Z,99.90
2022-09-14T05:02:32.669Z,99.90
2022-09-14T05:07:38.703Z,99.90
2022-09-14T05:12:44.552Z,99.90
2022-09-14T05:17:50.965Z,99.90
2022-09-14T05:22:56.697Z,99.90
2022-09-14T05:28:03.206Z,99.90
2022-09-14T05:33:09.132Z,99.90
2022-09-14T05:38:15.986Z,99.90
2022-09-14T05:43:21.879Z,97.90
2022-09-14T05:48:27.702Z,98.40
2022-09-14T05:53:34.337Z,94.00
2022-09-14T05:58:44.634Z,93.30
2022-09-14T06:03:54.611Z,90.40
2022-09-14T06:09:03.667Z,83.20
2022-09-14T06:14:09.359Z,72.00
2022-09-14T06:19:16.982Z,70.60
2022-09-14T06:24:23.332Z,64.60
2022-09-14T06:29:28.773Z,59.40
2022-09-14T06:34:34.539Z,56.00
2022-09-14T06:39:41.305Z,61.50
2022-09-14T06:44:47.059Z,48.70
2022-09-14T06:49:52.950Z,44.60
2022-09-14T06:54:58.744Z,41.40
2022-09-14T07:00:11.842Z,39.80
2022-09-14T07:10:47.084Z,34.40
2022-09-14T07:16:07.030Z,28.80
2022-09-14T07:21:35.367Z,25.40
2022-09-14T07:26:44.261Z,21.70
2022-09-14T07:31:56.001Z,20.10
2022-09-14T07:37:01.981Z,17.70
2022-09-14T07:42:07.896Z,15.60
2022-09-14T07:47:13.642Z,13.60
2022-09-14T07:52:19.139Z,9.80
2022-09-14T07:57:45.445Z,7.40
2022-09-14T08:02:55.543Z,3.00
2022-09-14T08:08:01.187Z,1.00
2022-09-14T08:13:06.928Z,1.00
2022-09-14T08:18:12.796Z,1.00
2022-09-14T08:23:18.304Z,1.00
2022-09-14T08:28:23.865Z,1.00
2022-09-14T08:33:29.761Z,1.00
2022-09-14T08:38:35.034Z,1.00
2022-09-14T08:43:40.847Z,1.00
2022-09-14T08:48:50.482Z,1.00
2022-09-14T08:53:58.414Z,1.00
2022-09-14T08:59:03.858Z,1.00
2022-09-14T09:04:38.741Z,1.00
2022-09-14T09:09:51.155Z,1.00
2022-09-14T09:15:02.856Z,1.00
2022-09-14T09:20:28.794Z,1.00
2022-09-14T09:25:41.685Z,1.60
2022-09-14T09:30:47.727Z,1.80
2022-09-14T09:35:57.310Z,2.00
2022-09-14T09:41:09.630Z,1.80
2022-09-14T09:46:15.628Z,1.90
2022-09-14T09:51:28.433Z,2.30
2022-09-14T09:56:39.968Z,10.20
2022-09-14T10:01:46.107Z,3.60
2022-09-14T10:06:57.221Z,2.90
2022-09-14T10:12:08.027Z,3.50
2022-09-14T10:17:21.148Z,4.20
2022-09-14T10:22:35.928Z,5.00
2022-09-14T10:27:44.934Z,5.60
2022-09-14T10:33:06.260Z,13.60
2022-09-14T10:38:31.632Z,6.80
2022-09-14T10:43:47.002Z,7.80
2022-09-14T10:48:55.443Z,8.60
2022-09-14T10:54:07.524Z,10.20
2022-09-14T10:59:22.445Z,11.20
2022-09-14T11:05:19.005Z,12.50
2022-09-14T11:10:46.321Z,16.20
2022-09-14T11:16:33.228Z,14.80
2022-09-14T11:21:45.927Z,16.40
2022-09-14T11:27:17.397Z,17.50
2022-09-14T11:33:01.752Z,18.80
2022-09-14T11:38:23.131Z,20.10
2022-09-14T11:43:54.485Z,22.00
2022-09-14T11:49:12.165Z,22.80
2022-09-14T11:54:23.293Z,23.90
2022-09-14T11:59:44.032Z,25.90
2022-09-14T12:05:07.955Z,26.20
2022-09-14T12:10:20.886Z,26.90
2022-09-14T12:15:29.620Z,27.50
2022-09-14T12:20:44.714Z,28.90
2022-09-14T12:26:21.641Z,30.10
2022-09-14T12:31:51.883Z,31.70
2022-09-14T12:36:59.631Z,33.70
2022-09-14T12:42:31.661Z,34.60
2022-09-14T12:47:37.542Z,35.10
2022-09-14T12:53:14.097Z,36.40
2022-09-14T12:59:00.982Z,37.30
2022-09-14T13:04:07.948Z,37.60
2022-09-14T13:09:22.311Z,38.10
2022-09-14T13:14:32.458Z,38.90
2022-09-14T13:19:38.209Z,40.90
2022-09-14T13:24:48.617Z,39.90
2022-09-14T13:30:12.861Z,41.00
2022-09-14T13:35:51.010Z,43.30
2022-09-14T13:41:06.041Z,43.80
2022-09-14T13:46:16.179Z,45.10
2022-09-14T13:51:31.607Z,52.40
2022-09-14T13:56:38.069Z,54.90
2022-09-14T14:01:52.867Z,55.90
2022-09-14T14:07:07.584Z,57.80
2022-09-14T14:12:16.165Z,60.90
2022-09-14T14:17:24.843Z,65.60
2022-09-14T14:22:41.026Z,66.30
2022-09-14T14:39:03.742Z,74.50
2022-09-14T14:44:24.191Z,79.60
2022-09-14T14:49:32.393Z,76.00
2022-09-14T14:54:43.127Z,77.50
2022-09-14T14:59:54.454Z,79.10
2022-09-14T15:05:00.550Z,79.00
2022-09-14T15:10:10.669Z,81.40
2022-09-14T15:15:20.257Z,83.10
2022-09-14T15:20:26.276Z,87.10
2022-09-14T15:25:32.393Z,90.00
2022-09-14T15:30:39.336Z,91.50
2022-09-14T15:35:45.401Z,93.70
2022-09-14T15:40:58.976Z,95.80
2022-09-14T15:46:05.539Z,96.90
2022-09-14T15:51:14.798Z,98.10
2022-09-14T15:56:21.051Z,99.10
2022-09-14T16:01:27.226Z,99.90
2022-09-14T16:06:35.826Z,99.90
2022-09-14T16:11:42.398Z,99.90
2022-09-14T16:16:48.098Z,99.90
2022-09-14T16:21:57.403Z,99.90
2022-09-14T16:27:04.514Z,99.90
2022-09-14T16:32:10.097Z,99.90
2022-09-14T16:37:16.276Z,99.90
2022-09-14T16:42:22.055Z,99.90
2022-09-14T16:47:27.500Z,99.90
2022-09-14T16:52:33.688Z,99.90
2022-09-14T16:57:39.155Z,99.90
2022-09-14T17:02:47.764Z,99.90
2022-09-14T17:07:53.938Z,99.90
2022-09-14T17:13:00.625Z,99.90
2022-09-14T17:18:07.150Z,99.90
2022-09-14T17:23:13.221Z,99.90
2022-09-14T17:28:19.461Z,99.90
2022-09-14T17:33:27.495Z,99.90
2022-09-14T17:38:37.591Z,99.90
2022-09-14T17:43:44.294Z,99.90
2022-09-14T17:48:50.306Z,99.90
2022-09-14T17:53:58.109Z,99.90
2022-09-14T17:59:24.032Z,99.90
2022-09-14T18:04:30.152Z,99.90
2022-09-14T18:09:36.313Z,99.90
2022-09-14T18:14:41.868Z,99.90
2022-09-14T18:19:47.740Z,99.90
2022-09-14T18:24:53.582Z,99.90
2022-09-14T18:29:59.359Z,99.90
2022-09-14T18:35:05.566Z,99.90
2022-09-14T18:40:11.789Z,99.90
2022-09-14T18:45:17.304Z,99.90
2022-09-14T18:50:24.811Z,99.90
2022-09-14T18:55:30.619Z,99.90
2022-09-14T19:00:36.908Z,99.90
2022-09-14T19:05:44.077Z,99.90
2022-09-14T19:10:50.028Z,99.90
2022-09-14T19:15:55.892Z,99.90
2022-09-14T19:21:13.262Z,99.90
2022-09-14T19:26:24.558Z,99.90
2022-09-14T19:31:32.332Z,99.90
2022-09-14T19:36:37.880Z,99.90
2022-09-14T19:41:43.380Z,99.90
2022-09-14T19:46:48.958Z,99.90
2022-09-14T19:51:55.321Z,99.90
2022-09-14T19:57:09.509Z,99.90
2022-09-14T20:02:15.325Z,99.90
2022-09-14T20:07:21.713Z,99.90
2022-09-14T20:12:27.179Z,99.90
2022-09-14T20:17:32.817Z,99.90
2022-09-14T20:22:38.944Z,99.90
2022-09-14T20:27:44.678Z,99.90
2022-09-14T20:32:50.851Z,99.90
2022-09-14T20:37:56.356Z,99.90
2022-09-14T20:43:01.780Z,99.90
2022-09-14T20:48:07.264Z,99.90
2022-09-14T20:53:12.927Z,99.90
2022-09-14T20:58:18.596Z,99.90
2022-09-14T21:03:25.473Z,99.90
2022-09-14T21:08:33.159Z,99.90
2022-09-14T21:13:38.767Z,99.90
2022-09-14T21:18:45.023Z,99.90
2022-09-14T21:23:52.134Z,99.90
2022-09-14T21:29:03.190Z,99.90
2022-09-14T21:34:11.892Z,99.90
2022-09-14T21:39:24.797Z,99.90
2022-09-14T21:44:32.591Z,99.90
2022-09-14T21:49:38.312Z,99.90
2022-09-14T21:54:44.136Z,99.90
2022-09-14T21:59:49.569Z,99.90
2022-09-14T22:04:54.468Z,99.90
2022-09-14T22:10:00.102Z,99.90
2022-09-14T22:15:06.074Z,99.90
2022-09-14T22:20:12.480Z,99.90
2022-09-14T22:25:19.024Z,99.90
2022-09-14T22:30:24.776Z,99.90
2022-09-14T22:35:30.648Z,99.90
2022-09-14T22:40:36.121Z,99.90
2022-09-14T22:45:41.991Z,99.90
2022-09-14T22:50:49.466Z,99.90
2022-09-14T22:55:55.210Z,99.90
2022-09-14T23:01:06.536Z,99.90
2022-09-14T23:06:12.384Z,99.90
2022-09-14T23:11:17.831Z,99.90
2022-09-14T23:16:25.111Z,99.90
2022-09-14T23:21:32.703Z,99.90
2022-09-14T23:26:38.409Z,99.90
2022-09-14T23:31:43.898Z,99.90
2022-09-14T23:36:53.269Z,99.90
2022-09-14T23:41:59.198Z,99.90
2022-09-14T23:47:04.916Z,99.90
2022-09-14T23:52:10.358Z,99.90
2022-09-14T23:57:16.129Z,99.90
